createdAt,value
2023-01-13T00:01:46.143Z,8.30
2023-01-13T00:04:16.697Z,8.23
2023-01-13T00:06:44.571Z,8.21
2023-01-13T00:09:16.187Z,8.14
2023-01-13T00:11:46.682Z,8.12
2023-01-13T00:14:22.603Z,8.09
2023-01-13T00:16:52.864Z,8.05
2023-01-13T00:19:24.949Z,8.05
2023-01-13T00:21:53.605Z,8.02
2023-01-13T00:24:22.933Z,8.01
2023-01-13T00:26:58.276Z,7.94
2023-01-13T00:29:30.251Z,7.91
2023-01-13T00:32:01.381Z,7.87
2023-01-13T00:34:31.383Z,7.86
2023-01-13T00:36:59.061Z,7.83
2023-01-13T00:39:29.473Z,7.81
2023-01-13T00:42:16.483Z,7.77
2023-01-13T00:44:47.624Z,7.75
2023-01-13T00:47:26.237Z,7.71
2023-01-13T00:49:55.436Z,7.69
2023-01-13T00:52:25.381Z,7.67
2023-01-13T00:54:58.470Z,7.65
2023-01-13T00:57:32.644Z,7.62
2023-01-13T01:00:06.323Z,7.61
2023-01-13T01:02:53.844Z,7.58
2023-01-13T01:05:22.732Z,7.59
2023-01-13T01:08:00.776Z,7.59
2023-01-13T01:10:29.869Z,7.58
2023-01-13T01:13:04.793Z,7.58
2023-01-13T01:15:34.263Z,7.54
2023-01-13T01:18:05.930Z,7.56
2023-01-13T01:20:40.089Z,7.60
2023-01-13T01:23:11.722Z,7.61
2023-01-13T01:25:45.937Z,7.60
2023-01-13T01:28:14.177Z,7.62
2023-01-13T01:30:58.749Z,7.60
2023-01-13T01:33:27.599Z,7.63
2023-01-13T01:35:56.177Z,7.58
2023-01-13T01:38:31.011Z,7.56
2023-01-13T01:41:00.843Z,7.57
2023-01-13T01:44:05.294Z,7.52
2023-01-13T01:46:46.793Z,7.47
2023-01-13T01:49:45.012Z,7.50
2023-01-13T01:52:40.994Z,7.48
2023-01-13T01:55:41.667Z,7.44
2023-01-13T01:58:50.091Z,7.43
2023-01-13T02:01:21.270Z,7.42
2023-01-13T02:04:05.276Z,7.40
2023-01-13T02:06:34.740Z,7.38
2023-01-13T02:09:03.099Z,7.36
2023-01-13T02:12:00.005Z,7.33
2023-01-13T02:14:33.678Z,7.34
2023-01-13T02:17:49.141Z,7.32
2023-01-13T02:20:16.729Z,7.29
2023-01-13T02:23:57.956Z,7.28
2023-01-13T02:26:52.456Z,7.21
2023-01-13T02:30:28.969Z,7.22
2023-01-13T02:33:36.177Z,7.17
2023-01-13T02:36:47.622Z,7.13
2023-01-13T02:43:05.262Z,7.10
2023-01-13T02:46:01.288Z,7.10
2023-01-13T02:48:33.062Z,7.09
2023-01-13T02:51:10.899Z,7.10
2023-01-13T02:54:14.689Z,7.11
2023-01-13T02:56:59.638Z,7.11
2023-01-13T02:59:32.920Z,7.14
2023-01-13T03:02:03.717Z,7.12
2023-01-13T03:04:58.962Z,7.18
2023-01-13T03:08:18.404Z,7.19
2023-01-13T03:11:13.196Z,7.21
2023-01-13T03:14:20.742Z,7.22
2023-01-13T03:17:24.851Z,7.22
2023-01-13T03:20:41.528Z,7.24
2023-01-13T03:23:44.464Z,7.25
2023-01-13T03:26:57.132Z,7.25
2023-01-13T03:30:06.393Z,7.24
2023-01-13T03:32:45.607Z,7.23
2023-01-13T03:35:46.270Z,7.26
2023-01-13T03:38:43.227Z,7.26
2023-01-13T03:41:30.832Z,7.30
2023-01-13T03:44:22.934Z,7.32
2023-01-13T03:47:19.431Z,7.35
2023-01-13T03:50:19.589Z,7.35
2023-01-13T03:53:13.751Z,7.39
2023-01-13T03:55:57.313Z,7.45
2023-01-13T03:58:46.278Z,7.48
2023-01-13T04:02:06.036Z,7.51
2023-01-13T04:04:55.622Z,7.52
2023-01-13T04:08:34.230Z,7.54
2023-01-13T04:11:21.251Z,7.54
2023-01-13T04:13:52.917Z,7.58
2023-01-13T04:16:31.121Z,7.60
2023-01-13T04:19:01.389Z,7.58
2023-01-13T04:21:38.871Z,7.58
2023-01-13T04:24:07.924Z,7.53
2023-01-13T04:26:35.531Z,7.52
2023-01-13T04:29:07.283Z,7.51
2023-01-13T04:31:37.968Z,7.44
2023-01-13T04:34:17.326Z,7.42
2023-01-13T04:36:55.081Z,7.38
2023-01-13T04:39:28.754Z,7.38
2023-01-13T04:42:07.307Z,7.34
2023-01-13T04:44:35.790Z,7.32
2023-01-13T04:47:07.924Z,7.30
2023-01-13T04:49:37.186Z,7.27
2023-01-13T04:52:08.663Z,7.30
2023-01-13T04:54:42.092Z,7.29
2023-01-13T04:57:11.933Z,7.29
2023-01-13T04:59:46.820Z,7.29
2023-01-13T05:02:20.097Z,7.27
2023-01-13T05:04:53.322Z,7.20
2023-01-13T05:07:31.504Z,7.16
2023-01-13T05:10:03.528Z,7.10
2023-01-13T05:12:51.969Z,6.99
2023-01-13T05:15:42.759Z,6.97
2023-01-13T05:18:14.648Z,6.91
2023-01-13T05:20:44.362Z,6.88
2023-01-13T05:23:32.924Z,6.84
2023-01-13T05:26:00.694Z,6.82
2023-01-13T05:28:34.339Z,6.77
2023-01-13T05:31:08.572Z,6.75
2023-01-13T05:36:26.257Z,6.75
2023-01-13T05:39:00.397Z,6.70
2023-01-13T05:41:53.204Z,6.71
2023-01-13T05:44:23.258Z,6.73
2023-01-13T05:47:07.168Z,6.75
2023-01-13T05:49:44.177Z,6.79
2023-01-13T05:52:14.194Z,6.78
2023-01-13T05:54:46.739Z,6.84
2023-01-13T05:57:23.305Z,6.86
2023-01-13T06:00:50.558Z,6.86
2023-01-13T06:03:24.791Z,6.85
2023-01-13T06:06:29.404Z,6.81
2023-01-13T06:09:16.353Z,6.75
2023-01-13T06:11:52.701Z,6.74
2023-01-13T06:14:22.195Z,6.70
2023-01-13T06:17:00.635Z,6.68
2023-01-13T06:19:32.129Z,6.67
2023-01-13T06:22:36.890Z,6.65
2023-01-13T06:25:51.320Z,6.63
2023-01-13T06:28:43.524Z,6.60
2023-01-13T06:31:11.726Z,6.56
2023-01-13T06:33:52.440Z,6.53
2023-01-13T06:36:38.130Z,6.52
2023-01-13T06:39:20.410Z,6.50
2023-01-13T06:42:14.952Z,6.45
2023-01-13T06:50:39.497Z,6.46
2023-01-13T06:53:11.653Z,6.47
2023-01-13T06:55:52.472Z,6.48
2023-01-13T06:58:21.146Z,6.46
2023-01-13T07:00:54.553Z,6.51
2023-01-13T07:03:33.920Z,6.50
2023-01-13T07:06:11.103Z,6.52
2023-01-13T07:08:43.605Z,6.54
2023-01-13T07:12:02.199Z,6.53
2023-01-13T07:14:53.272Z,6.52
2023-01-13T07:17:29.861Z,6.54
2023-01-13T07:20:00.769Z,6.57
2023-01-13T07:22:32.871Z,6.58
2023-01-13T07:25:09.468Z,6.57
2023-01-13T07:27:55.175Z,6.60
2023-01-13T07:30:31.779Z,6.59
2023-01-13T07:36:13.198Z,6.58
2023-01-13T07:42:12.111Z,6.57
2023-01-13T07:48:03.063Z,6.53
2023-01-13T07:50:49.794Z,6.54
2023-01-13T07:53:32.481Z,6.53
2023-01-13T07:56:39.804Z,6.53
2023-01-13T07:59:26.964Z,6.55
2023-01-13T08:02:00.260Z,6.52
2023-01-13T08:07:54.489Z,6.55
2023-01-13T08:10:34.944Z,6.57
2023-01-13T08:13:25.265Z,6.57
2023-01-13T08:16:22.151Z,6.62
2023-01-13T08:18:56.398Z,6.63
2023-01-13T08:21:37.256Z,6.64
2023-01-13T08:24:14.293Z,6.67
2023-01-13T08:26:55.034Z,6.74
2023-01-13T08:29:33.499Z,6.73
2023-01-13T08:32:06.613Z,6.76
2023-01-13T08:35:01.895Z,6.79
2023-01-13T08:37:40.531Z,6.79
2023-01-13T08:40:19.029Z,6.87
2023-01-13T08:43:11.683Z,6.90
2023-01-13T08:45:47.438Z,6.94
2023-01-13T08:48:18.198Z,6.91
2023-01-13T08:53:57.862Z,6.97
2023-01-13T08:56:35.450Z,7.05
2023-01-13T08:59:22.340Z,7.07
2023-01-13T09:02:27.393Z,7.10
2023-01-13T09:05:11.376Z,7.09
2023-01-13T09:07:40.064Z,7.10
2023-01-13T09:10:32.661Z,7.14
2023-01-13T09:13:19.893Z,7.13
2023-01-13T09:16:24.606Z,7.25
2023-01-13T09:19:04.370Z,7.38
2023-01-13T09:21:55.408Z,7.47
2023-01-13T09:24:47.540Z,7.48
2023-01-13T09:27:22.309Z,7.47
2023-01-13T09:33:24.380Z,7.46
2023-01-13T09:42:26.451Z,7.33
2023-01-13T09:45:23.488Z,7.20
2023-01-13T09:48:30.605Z,7.15
2023-01-13T09:51:30.992Z,7.14
2023-01-13T09:54:26.012Z,7.17
2023-01-13T09:56:58.868Z,7.16
2023-01-13T09:59:36.421Z,7.15
2023-01-13T10:02:58.853Z,7.13
2023-01-13T10:05:53.347Z,7.22
2023-01-13T10:08:43.151Z,7.30
2023-01-13T10:11:58.729Z,7.27
2023-01-13T10:14:55.018Z,7.27
2023-01-13T10:17:55.310Z,7.28
2023-01-13T10:21:35.831Z,7.23
2023-01-13T10:24:53.302Z,7.00
2023-01-13T10:27:41.089Z,6.80
2023-01-13T10:30:41.027Z,6.66
2023-01-13T10:33:47.694Z,6.55
2023-01-13T10:36:31.525Z,6.46
2023-01-13T10:39:23.675Z,6.35
2023-01-13T10:42:37.067Z,6.31
2023-01-13T10:45:26.651Z,6.26
2023-01-13T10:48:15.981Z,6.24
2023-01-13T10:50:49.784Z,6.20
2023-01-13T10:53:54.002Z,6.27
2023-01-13T10:56:41.028Z,6.31
2023-01-13T10:59:45.651Z,6.35
2023-01-13T11:02:44.941Z,6.38
2023-01-13T11:05:25.354Z,6.34
2023-01-13T11:07:59.348Z,6.35
2023-01-13T11:13:57.967Z,6.37
2023-01-13T11:16:38.157Z,6.39
2023-01-13T11:19:19.114Z,6.36
2023-01-13T11:22:49.079Z,6.39
2023-01-13T11:25:47.282Z,6.38
2023-01-13T11:28:43.144Z,6.39
2023-01-13T11:31:33.727Z,6.42
2023-01-13T11:34:46.700Z,6.59
2023-01-13T11:38:02.945Z,6.80
2023-01-13T11:41:25.257Z,7.05
2023-01-13T11:44:35.762Z,7.29
2023-01-13T11:50:40.837Z,7.59
2023-01-13T11:53:56.708Z,7.66
2023-01-13T12:01:30.725Z,7.59
2023-01-13T12:04:25.493Z,7.51
2023-01-13T12:08:11.449Z,7.46
2023-01-13T12:11:34.307Z,7.40
2023-01-13T12:14:58.069Z,7.35
2023-01-13T12:24:51.472Z,6.96
2023-01-13T12:28:49.345Z,6.90
2023-01-13T12:31:27.874Z,6.87
2023-01-13T12:38:09.634Z,6.90
2023-01-13T12:41:13.364Z,7.01
2023-01-13T12:44:19.123Z,7.08
2023-01-13T12:47:02.437Z,7.17
2023-01-13T12:49:37.746Z,7.22
2023-01-13T12:52:25.417Z,7.27
2023-01-13T12:56:05.775Z,7.31
2023-01-13T13:01:58.457Z,7.44
2023-01-13T13:22:29.888Z,7.90
2023-01-13T13:25:07.763Z,7.96
2023-01-13T13:28:08.912Z,8.00
2023-01-13T13:30:51.751Z,8.01
2023-01-13T13:33:56.722Z,8.04
2023-01-13T13:37:06.116Z,8.03
2023-01-13T13:39:58.826Z,8.01
2023-01-13T13:43:00.902Z,7.96
2023-01-13T13:45:53.805Z,7.99
2023-01-13T13:48:38.925Z,7.96
2023-01-13T13:51:45.359Z,7.93
2023-01-13T13:54:21.986Z,7.94
2023-01-13T14:00:18.594Z,7.96
2023-01-13T14:03:32.110Z,7.94
2023-01-13T14:06:38.119Z,7.98
2023-01-13T14:12:43.101Z,8.04
2023-01-13T14:15:56.187Z,8.05
2023-01-13T14:18:48.471Z,8.14
2023-01-13T14:21:41.257Z,8.19
2023-01-13T14:24:46.945Z,8.21
2023-01-13T14:27:35.456Z,8.22
2023-01-13T14:30:23.173Z,8.20
2023-01-13T14:33:00.254Z,8.17
2023-01-13T14:35:36.928Z,8.17
2023-01-13T14:38:10.433Z,8.14
2023-01-13T14:41:20.776Z,8.13
2023-01-13T14:43:55.942Z,8.12
2023-01-13T14:46:50.016Z,8.08
2023-01-13T14:49:47.351Z,8.05
2023-01-13T14:53:09.716Z,8.06
2023-01-13T14:58:53.520Z,8.00
2023-01-13T15:01:43.672Z,7.99
2023-01-13T15:08:13.888Z,8.00
2023-01-13T15:11:14.081Z,8.00
2023-01-13T15:14:03.908Z,8.00
2023-01-13T15:16:34.704Z,7.99
2023-01-13T15:19:19.208Z,7.99
2023-01-13T15:25:02.467Z,8.00
2023-01-13T15:30:31.632Z,7.97
2023-01-13T15:35:54.116Z,7.96
2023-01-13T15:38:28.384Z,7.97
2023-01-13T15:41:14.309Z,7.95
2023-01-13T15:44:06.811Z,7.92
2023-01-13T15:49:46.801Z,7.92
2023-01-13T15:52:41.660Z,7.90
2023-01-13T15:55:22.752Z,7.90
2023-01-13T15:57:51.685Z,7.89
2023-01-13T16:00:28.172Z,7.87
2023-01-13T16:03:04.962Z,7.86
2023-01-13T16:08:35.290Z,7.86
2023-01-13T16:11:05.578Z,7.85
2023-01-13T16:16:28.059Z,7.83
2023-01-13T16:19:06.926Z,7.81
2023-01-13T16:27:58.868Z,7.80
2023-01-13T16:31:00.257Z,7.81
2023-01-13T16:39:23.707Z,7.81
2023-01-13T16:41:53.673Z,7.84
2023-01-13T16:44:31.829Z,7.76
2023-01-13T16:47:15.103Z,7.66
2023-01-13T16:49:47.827Z,7.59
2023-01-13T16:52:39.214Z,7.57
2023-01-13T16:55:45.535Z,7.57
2023-01-13T16:58:35.318Z,7.61
2023-01-13T17:01:27.490Z,7.63
2023-01-13T17:04:34.573Z,7.65
2023-01-13T17:07:10.526Z,7.71
2023-01-13T17:09:46.941Z,7.78
2023-01-13T17:12:14.911Z,7.83
2023-01-13T17:14:45.015Z,7.86
2023-01-13T17:17:28.408Z,7.88
2023-01-13T17:20:00.822Z,7.87
2023-01-13T17:22:43.926Z,7.83
2023-01-13T17:25:20.920Z,7.80
2023-01-13T17:28:08.741Z,7.78
2023-01-13T17:30:36.915Z,7.79
2023-01-13T17:33:10.083Z,7.80
2023-01-13T17:36:00.078Z,7.77
2023-01-13T17:38:42.593Z,7.74
2023-01-13T17:41:21.665Z,7.74
2023-01-13T17:43:59.577Z,7.76
2023-01-13T17:46:57.824Z,7.77
2023-01-13T17:49:43.504Z,7.74
2023-01-13T17:52:17.600Z,7.73
2023-01-13T17:54:48.975Z,7.75
2023-01-13T17:57:22.720Z,7.63
2023-01-13T17:59:54.676Z,7.43
2023-01-13T18:02:26.641Z,7.27
2023-01-13T18:04:58.415Z,7.16
2023-01-13T18:07:29.755Z,7.08
2023-01-13T18:10:12.236Z,6.99
2023-01-13T18:12:49.957Z,6.92
2023-01-13T18:15:31.687Z,6.83
2023-01-13T18:18:24.264Z,6.75
2023-01-13T18:21:14.950Z,6.69
2023-01-13T18:24:12.085Z,6.70
2023-01-13T18:26:59.180Z,6.68
2023-01-13T18:32:35.468Z,6.68
2023-01-13T18:35:15.835Z,6.63
2023-01-13T18:37:44.928Z,6.60
2023-01-13T18:43:22.743Z,6.55
2023-01-13T18:45:51.933Z,6.54
2023-01-13T18:48:36.794Z,6.58
2023-01-13T18:51:08.187Z,6.57
2023-01-13T18:53:42.100Z,6.59
2023-01-13T18:56:33.861Z,6.60
2023-01-13T18:59:15.287Z,6.60
2023-01-13T19:01:55.068Z,6.62
2023-01-13T19:04:44.615Z,6.66
2023-01-13T19:07:30.366Z,6.66
2023-01-13T19:10:13.098Z,6.71
2023-01-13T19:12:45.678Z,6.74
2023-01-13T19:15:17.058Z,6.76
2023-01-13T19:17:55.729Z,6.80
2023-01-13T19:20:36.458Z,6.82
2023-01-13T19:23:29.275Z,6.88
2023-01-13T19:26:12.247Z,6.91
2023-01-13T19:28:53.820Z,6.94
2023-01-13T19:31:32.345Z,6.97
2023-01-13T19:37:15.395Z,6.98
2023-01-13T19:39:44.487Z,6.93
2023-01-13T19:42:37.705Z,6.95
2023-01-13T19:45:38.061Z,6.93
2023-01-13T19:48:27.858Z,6.94
2023-01-13T19:51:09.709Z,6.95
2023-01-13T19:56:51.536Z,6.98
2023-01-13T20:09:07.759Z,7.03
2023-01-13T20:11:46.262Z,7.02
2023-01-13T20:14:27.036Z,7.00
2023-01-13T20:16:56.975Z,6.96
2023-01-13T20:19:28.004Z,6.95
2023-01-13T20:22:05.117Z,6.94
2023-01-13T20:24:35.574Z,6.95
2023-01-13T20:27:10.415Z,6.97
2023-01-13T20:30:11.556Z,6.93
2023-01-13T20:32:58.217Z,6.80
2023-01-13T20:35:38.232Z,6.76
2023-01-13T20:38:28.102Z,6.69
2023-01-13T20:41:30.639Z,6.68
2023-01-13T20:44:02.592Z,6.66
2023-01-13T20:46:37.494Z,6.69
2023-01-13T20:49:08.919Z,6.69
2023-01-13T20:51:50.648Z,6.74
2023-01-13T20:54:27.419Z,6.78
2023-01-13T20:57:01.449Z,6.80
2023-01-13T20:59:33.134Z,6.87
2023-01-13T21:02:14.837Z,6.92
2023-01-13T21:04:54.102Z,6.98
2023-01-13T21:07:26.724Z,7.03
2023-01-13T21:10:03.537Z,7.06
2023-01-13T21:12:51.855Z,7.10
2023-01-13T21:15:30.704Z,7.13
2023-01-13T21:18:27.198Z,7.13
2023-01-13T21:21:12.317Z,7.13
2023-01-13T21:24:05.151Z,7.12
2023-01-13T21:26:35.418Z,7.13
2023-01-13T21:29:11.781Z,7.15
2023-01-13T21:31:40.671Z,7.18
2023-01-13T21:34:11.996Z,7.20
2023-01-13T21:36:50.683Z,7.25
2023-01-13T21:42:19.601Z,7.32
2023-01-13T21:45:13.654Z,7.35
2023-01-13T21:48:03.252Z,7.40
2023-01-13T21:50:39.424Z,7.42
2023-01-13T21:53:09.678Z,7.42
2023-01-13T21:55:38.359Z,7.43
2023-01-13T21:58:15.860Z,7.44
2023-01-13T22:00:46.009Z,7.46
2023-01-13T22:03:27.167Z,7.47
2023-01-13T22:06:01.278Z,7.50
2023-01-13T22:08:30.509Z,7.49
2023-01-13T22:10:58.506Z,7.49
2023-01-13T22:13:47.927Z,7.48
2023-01-13T22:16:25.699Z,7.49
2023-01-13T22:19:04.571Z,7.45
2023-01-13T22:21:54.660Z,7.47
2023-01-13T22:24:27.591Z,7.44
2023-01-13T22:26:55.253Z,7.41
2023-01-13T22:29:25.631Z,7.39
2023-01-13T22:31:55.693Z,7.36
2023-01-13T22:34:26.796Z,7.31
2023-01-13T22:37:00.323Z,7.26
2023-01-13T22:39:31.469Z,7.22
2023-01-13T22:42:03.340Z,7.14
2023-01-13T22:44:35.874Z,7.11
2023-01-13T22:47:10.155Z,7.05
2023-01-13T22:49:42.032Z,7.03
2023-01-13T22:52:19.179Z,6.98
2023-01-13T22:54:55.065Z,6.92
2023-01-13T22:57:23.979Z,6.91
2023-01-13T22:59:51.816Z,6.87
2023-01-13T23:02:28.026Z,6.82
2023-01-13T23:05:00.774Z,6.80
2023-01-13T23:08:05.728Z,6.77
2023-01-13T23:10:35.799Z,6.74
2023-01-13T23:13:12.028Z,6.73
2023-01-13T23:15:41.865Z,6.74
2023-01-13T23:18:14.802Z,6.73
2023-01-13T23:20:44.826Z,6.75
2023-01-13T23:29:16.551Z,6.75
2023-01-13T23:31:45.887Z,6.76
2023-01-13T23:34:19.212Z,6.75
2023-01-13T23:36:54.829Z,6.76
2023-01-13T23:39:28.317Z,6.75
2023-01-13T23:42:01.678Z,6.73
2023-01-13T23:44:31.065Z,6.72
2023-01-13T23:46:58.819Z,6.69
2023-01-13T23:49:30.399Z,6.68
2023-01-13T23:52:19.453Z,6.66
2023-01-13T23:54:57.601Z,6.63
2023-01-13T23:57:28.024Z,6.61
2023-01-13T23:59:57.102Z,6.64
